CAMK1: Grouse Creek nr Cameron KS

Data processed at Wed May 22 2019 23:30


All information presented herein is the property of the government of the United States of America and may be revised or deleted at any time without prior notice.
Dissemination of this information without the expressed written consent of the Public Affairs Office, Tulsa District U.S. Army Corps of Engineers is strictly prohibited.
These data are gathered electronically and, as presented, have not undergone any form of quality control. These data are not guaranteed to be valid or correct.
Go to home page.
Go to station list.
Go to home page.

Upstream stations:

Downstream station:
Previous Day
Next Day
Current Day
    
SHEF ID:       CAMK1     Grouse Creek nr Cameron KS
STATION TYPE:  

               PRECIP     STAGE  RIV-FLOW   VOLTAGE  BAT-LOAD
                   in        ft       cfs      volt      volt
              Ccp-Rev   Ccp-Rev   Ccp-Rev   Ccp-Rev   Ccp-Rev
(US/Central)
05/22 00:00      0.00     29.75     17390     12.65     12.57
05/22 01:00      0.00     29.37     16048     12.65     12.57
05/22 02:00      0.00     28.95     14667     12.65     12.57
05/22 03:00      0.00     28.44     13126     12.65     12.49
05/22 04:00      0.00     27.90     11644     12.65     12.49
05/22 05:00      0.00     27.15     10221     12.57     12.41
05/22 06:00      0.00     26.28      9227     12.57     12.41
05/22 07:00      0.00     25.17      8058     12.81     12.49
05/22 08:00      0.00     23.95      6894     13.53     13.21
05/22 09:00      0.00     22.48      5651     13.37     13.37
05/22 10:00      0.00     20.94      4523     13.37     13.53
05/22 11:00      0.00     19.78      3782     13.68     13.84
05/22 12:00      0.00     19.00      3326     13.37     13.68
05/22 13:00      0.00     18.49      3044     13.44     13.21
05/22 14:00      0.06     18.15      2865     13.84     13.13
05/22 15:00      0.12     17.89      2733     13.53     13.13
05/22 16:00      0.00     17.63      2605     13.44     13.05
05/22 17:00      0.00     17.51      2548     13.76     13.05
05/22 18:00      0.00     17.36      2472     13.92     13.05
05/22 19:00      0.00     17.23      2401     14.00     13.05
05/22 20:00      0.00     17.08      2322     13.13     13.05
05/22 21:00      0.00     16.96      2260     12.81     12.73
05/22 22:00      0.00     16.84      2199     12.73     12.65
05/22 23:00      ----      ----      ----      ----      ----